createdAt,value
2017-10-20T00:00:42.359Z,6.60
2017-10-20T00:03:14.700Z,11.07
2017-10-20T00:05:47.010Z,9.07
2017-10-20T00:08:18.829Z,16.40
2017-10-20T00:10:50.919Z,8.43
2017-10-20T00:13:22.938Z,10.80
2017-10-20T00:15:54.814Z,6.20
2017-10-20T00:18:27.118Z,11.13
2017-10-20T00:20:59.137Z,10.60
2017-10-20T00:23:31.068Z,13.37
2017-10-20T00:26:03.020Z,6.60
2017-10-20T00:28:34.906Z,16.80
2017-10-20T00:31:06.824Z,8.00
2017-10-20T00:33:38.788Z,7.70
2017-10-20T00:36:10.638Z,7.57
2017-10-20T00:38:42.650Z,6.40
2017-10-20T00:41:14.795Z,5.83
2017-10-20T00:43:46.698Z,6.27
2017-10-20T00:46:18.567Z,12.93
2017-10-20T00:48:51.711Z,9.70
2017-10-20T00:51:23.741Z,8.13
2017-10-20T00:53:55.559Z,8.00
2017-10-20T00:56:27.460Z,7.30
2017-10-20T00:59:00.367Z,5.67
2017-10-20T01:01:32.505Z,5.90
2017-10-20T01:04:04.546Z,13.40
2017-10-20T01:06:36.802Z,8.00
2017-10-20T01:09:08.583Z,4.97
2017-10-20T01:11:40.530Z,8.77
2017-10-20T01:14:12.417Z,5.50
2017-10-20T01:16:44.300Z,7.40
2017-10-20T01:19:16.341Z,7.20
2017-10-20T01:21:48.472Z,9.47
2017-10-20T01:24:20.567Z,8.80
2017-10-20T01:26:52.661Z,8.13
2017-10-20T01:29:24.792Z,9.23
2017-10-20T01:31:56.943Z,6.90
2017-10-20T01:34:29.286Z,6.60
2017-10-20T01:37:01.602Z,12.90
2017-10-20T01:39:48.227Z,7.10
2017-10-20T01:42:21.637Z,7.70
2017-10-20T01:44:53.621Z,8.30
2017-10-20T01:47:25.774Z,8.00
2017-10-20T01:49:57.643Z,7.53
2017-10-20T01:52:29.804Z,7.13
2017-10-20T01:55:02.024Z,6.83
2017-10-20T01:57:33.987Z,10.40
2017-10-20T02:00:05.792Z,6.27
2017-10-20T02:02:38.082Z,11.10
2017-10-20T02:05:10.357Z,7.60
2017-10-20T02:07:42.454Z,8.00
2017-10-20T02:10:14.312Z,10.27
2017-10-20T02:12:46.345Z,9.33
2017-10-20T02:15:18.121Z,11.23
2017-10-20T02:17:50.190Z,8.83
2017-10-20T02:20:21.998Z,11.03
2017-10-20T02:22:53.838Z,7.50
2017-10-20T02:25:25.976Z,8.70
2017-10-20T02:27:57.959Z,11.67
2017-10-20T02:30:29.737Z,9.30
2017-10-20T02:33:02.981Z,8.10
2017-10-20T02:35:34.938Z,9.47
2017-10-20T02:38:06.931Z,13.33
2017-10-20T02:40:39.123Z,10.83
2017-10-20T02:43:11.178Z,9.80
2017-10-20T02:45:43.128Z,10.07
2017-10-20T02:48:15.059Z,7.47
2017-10-20T02:50:47.009Z,11.60
2017-10-20T02:53:19.180Z,11.70
2017-10-20T02:55:50.986Z,7.83
2017-10-20T02:58:23.171Z,8.53
2017-10-20T03:00:55.253Z,12.20
2017-10-20T03:03:26.959Z,7.63
2017-10-20T03:05:59.071Z,8.53
2017-10-20T03:08:31.018Z,6.17
2017-10-20T03:11:02.904Z,11.57
2017-10-20T03:13:35.086Z,10.90
2017-10-20T03:16:07.113Z,8.27
2017-10-20T03:18:39.021Z,12.23
2017-10-20T03:21:10.808Z,10.60
2017-10-20T03:23:42.800Z,8.70
2017-10-20T03:26:14.589Z,9.63
2017-10-20T03:28:46.679Z,12.77
2017-10-20T03:31:18.410Z,12.43
2017-10-20T03:33:50.605Z,10.43
2017-10-20T03:36:22.601Z,10.37
2017-10-20T03:38:54.652Z,6.23
2017-10-20T03:41:26.407Z,6.70
2017-10-20T03:43:58.425Z,9.83
2017-10-20T03:46:30.568Z,9.30
2017-10-20T03:49:02.651Z,9.37
2017-10-20T03:51:34.593Z,12.80
2017-10-20T03:54:06.525Z,15.17
2017-10-20T03:56:38.441Z,9.67
2017-10-20T03:59:10.574Z,6.80
2017-10-20T04:01:42.710Z,10.07
2017-10-20T04:04:14.515Z,8.73
2017-10-20T04:06:46.691Z,8.70
2017-10-20T04:09:18.695Z,9.93
2017-10-20T04:11:50.530Z,7.60
2017-10-20T04:14:22.478Z,9.00
2017-10-20T04:16:54.810Z,10.83
2017-10-20T04:19:26.903Z,9.07
2017-10-20T04:21:58.837Z,7.80
2017-10-20T04:24:30.818Z,7.80
2017-10-20T04:27:02.976Z,9.87
2017-10-20T04:29:35.168Z,10.67
2017-10-20T04:32:07.259Z,10.60
2017-10-20T04:34:39.342Z,7.63
2017-10-20T04:37:11.453Z,13.33
2017-10-20T04:39:43.190Z,8.33
2017-10-20T04:42:15.883Z,10.77
2017-10-20T04:44:47.872Z,8.67
2017-10-20T04:47:19.662Z,6.17
2017-10-20T04:49:51.672Z,8.30
2017-10-20T04:52:23.657Z,10.33
2017-10-20T04:54:55.672Z,9.37
2017-10-20T04:57:27.405Z,7.23
2017-10-20T04:59:59.350Z,8.17
2017-10-20T05:02:31.230Z,7.37
2017-10-20T05:05:03.261Z,10.37
2017-10-20T05:07:35.383Z,11.70
2017-10-20T05:10:07.338Z,6.77
2017-10-20T05:12:40.255Z,7.80
2017-10-20T05:15:12.051Z,6.60
2017-10-20T05:17:44.822Z,9.03
2017-10-20T05:20:16.684Z,6.63
2017-10-20T05:22:48.587Z,11.83
2017-10-20T05:25:20.405Z,7.70
2017-10-20T05:27:53.739Z,8.30
2017-10-20T05:30:25.660Z,9.03
2017-10-20T05:32:57.686Z,8.00
2017-10-20T05:35:29.772Z,6.17
2017-10-20T05:38:02.711Z,6.40
2017-10-20T05:40:34.637Z,9.53
2017-10-20T05:43:06.492Z,7.20
2017-10-20T05:45:39.448Z,8.00
2017-10-20T05:48:11.656Z,6.40
2017-10-20T05:50:43.901Z,7.60
2017-10-20T05:53:15.673Z,5.60
2017-10-20T05:55:47.319Z,7.83
2017-10-20T05:58:19.411Z,7.43
2017-10-20T06:00:51.403Z,10.97
2017-10-20T06:03:23.335Z,8.00
2017-10-20T06:05:55.285Z,6.30
2017-10-20T06:08:28.268Z,9.73
2017-10-20T06:11:00.600Z,6.30
2017-10-20T06:13:32.245Z,9.97
2017-10-20T06:16:04.254Z,7.13
2017-10-20T06:18:36.333Z,8.23
2017-10-20T06:21:08.207Z,7.83
2017-10-20T06:23:40.286Z,8.83
2017-10-20T06:29:35.404Z,10.70
2017-10-20T06:32:08.525Z,13.33
2017-10-20T06:34:41.508Z,10.70
2017-10-20T06:37:14.363Z,6.67
2017-10-20T06:39:46.268Z,7.90
2017-10-20T06:42:32.333Z,8.80
2017-10-20T06:45:04.480Z,6.80
2017-10-20T06:47:36.250Z,10.43
2017-10-20T06:50:08.372Z,8.67
2017-10-20T06:52:40.354Z,7.93
2017-10-20T06:55:12.538Z,9.60
2017-10-20T06:57:44.404Z,6.17
2017-10-20T07:00:16.297Z,9.97
2017-10-20T07:02:48.178Z,7.77
2017-10-20T07:05:20.216Z,7.50
2017-10-20T07:07:52.347Z,9.60
2017-10-20T07:10:24.645Z,8.00
2017-10-20T07:12:56.589Z,6.67
2017-10-20T07:15:28.496Z,6.70
2017-10-20T07:18:07.145Z,6.70
2017-10-20T07:20:51.909Z,8.50
2017-10-20T07:23:23.813Z,8.67
2017-10-20T07:25:55.813Z,13.03
2017-10-20T07:28:27.683Z,6.00
2017-10-20T07:30:59.732Z,8.97
2017-10-20T07:33:31.774Z,6.80
2017-10-20T07:36:03.498Z,11.13
2017-10-20T07:38:35.274Z,8.73
2017-10-20T07:41:07.290Z,8.00
2017-10-20T07:43:39.169Z,8.83
2017-10-20T07:46:10.911Z,6.73
2017-10-20T07:48:42.681Z,7.53
2017-10-20T07:51:14.558Z,6.50
2017-10-20T07:53:46.559Z,7.30
2017-10-20T07:56:18.552Z,6.23
2017-10-20T07:58:50.362Z,7.27
2017-10-20T08:01:22.428Z,5.80
2017-10-20T08:03:54.376Z,6.03
2017-10-20T08:06:26.185Z,6.17
2017-10-20T08:08:57.942Z,7.37
2017-10-20T08:11:30.257Z,9.23
2017-10-20T08:14:02.675Z,7.83
2017-10-20T08:16:34.733Z,7.37
2017-10-20T08:19:06.514Z,11.20
2017-10-20T08:21:38.442Z,12.50
2017-10-20T08:24:10.338Z,6.30
2017-10-20T08:26:42.336Z,5.97
2017-10-20T08:29:15.319Z,7.53
2017-10-20T08:31:47.363Z,9.93
2017-10-20T08:34:19.253Z,8.53
2017-10-20T08:36:51.128Z,11.10
2017-10-20T08:39:24.136Z,7.13
2017-10-20T08:41:56.056Z,6.27
2017-10-20T08:44:27.986Z,8.77
2017-10-20T08:46:59.964Z,10.83
2017-10-20T08:49:31.906Z,12.27
2017-10-20T08:52:03.975Z,8.60
2017-10-20T08:54:35.445Z,12.70
2017-10-20T08:57:07.457Z,10.67
2017-10-20T08:59:39.409Z,7.57
2017-10-20T09:02:11.464Z,10.37
2017-10-20T09:04:43.293Z,6.77
2017-10-20T09:07:15.345Z,10.67
2017-10-20T09:09:47.213Z,8.27
2017-10-20T09:12:19.466Z,11.30
2017-10-20T09:14:51.347Z,8.43
2017-10-20T09:17:23.313Z,7.67
2017-10-20T09:19:55.129Z,9.03
2017-10-20T09:22:26.875Z,7.37
2017-10-20T09:24:58.880Z,9.90
2017-10-20T09:27:30.486Z,6.17
2017-10-20T09:30:02.419Z,5.83
2017-10-20T09:32:34.320Z,9.53
2017-10-20T09:35:07.405Z,8.67
2017-10-20T09:37:39.389Z,8.37
2017-10-20T09:40:11.221Z,7.70
2017-10-20T09:42:43.284Z,7.40
2017-10-20T09:45:15.649Z,7.00
2017-10-20T09:47:47.623Z,6.97
2017-10-20T09:50:19.519Z,9.33
2017-10-20T09:52:51.333Z,8.67
2017-10-20T09:55:23.175Z,7.43
2017-10-20T09:57:55.324Z,10.73
2017-10-20T10:00:27.234Z,7.40
2017-10-20T10:02:59.244Z,9.87
2017-10-20T10:05:30.963Z,8.27
2017-10-20T10:08:02.945Z,9.20
2017-10-20T10:10:34.996Z,7.67
2017-10-20T10:13:07.122Z,5.97
2017-10-20T10:15:38.931Z,5.43
2017-10-20T10:18:10.834Z,8.53
2017-10-20T10:20:42.780Z,5.97
2017-10-20T10:23:14.747Z,10.23
2017-10-20T10:25:48.362Z,10.40
2017-10-20T10:28:20.312Z,7.43
2017-10-20T10:30:52.600Z,5.50
2017-10-20T10:33:24.617Z,9.13
2017-10-20T10:35:56.705Z,6.37
2017-10-20T10:38:28.873Z,12.90
2017-10-20T10:41:00.858Z,8.27
2017-10-20T10:43:32.483Z,9.70
2017-10-20T10:46:04.230Z,7.50
2017-10-20T10:48:36.227Z,9.23
2017-10-20T10:51:07.950Z,12.67
2017-10-20T10:53:41.547Z,11.03
2017-10-20T10:56:13.461Z,13.97
2017-10-20T10:58:45.193Z,11.70
2017-10-20T11:01:17.102Z,15.40
2017-10-20T11:03:49.165Z,10.60
2017-10-20T11:06:26.331Z,13.23
2017-10-20T11:09:15.180Z,11.07
2017-10-20T11:11:52.469Z,11.73
2017-10-20T11:14:24.367Z,9.97
2017-10-20T11:16:56.165Z,10.60
2017-10-20T11:19:28.241Z,12.43
2017-10-20T11:22:00.364Z,16.10
2017-10-20T11:24:32.521Z,17.03
2017-10-20T11:27:04.456Z,13.30
2017-10-20T11:29:36.253Z,11.27
2017-10-20T11:32:08.329Z,11.37
2017-10-20T11:34:40.305Z,8.87
2017-10-20T11:37:12.245Z,9.70
2017-10-20T11:39:44.254Z,7.50
2017-10-20T11:42:16.257Z,6.97
2017-10-20T11:44:48.383Z,10.27
2017-10-20T11:47:20.138Z,11.40
2017-10-20T11:49:51.841Z,11.70
2017-10-20T11:52:25.341Z,12.30
2017-10-20T11:54:57.490Z,9.30
2017-10-20T11:57:29.290Z,17.70
2017-10-20T12:00:02.480Z,13.03
2017-10-20T12:02:34.343Z,11.13
2017-10-20T12:05:07.177Z,12.03
2017-10-20T12:07:39.001Z,11.53
2017-10-20T12:10:10.884Z,12.30
2017-10-20T12:12:42.724Z,11.47
2017-10-20T12:15:15.235Z,17.47
2017-10-20T12:17:47.049Z,15.60
2017-10-20T12:20:18.803Z,16.43
2017-10-20T12:22:50.837Z,15.27
2017-10-20T12:25:22.951Z,11.87
2017-10-20T12:27:54.863Z,16.37
2017-10-20T12:30:26.759Z,19.83
2017-10-20T12:32:58.583Z,16.80
2017-10-20T12:35:30.492Z,20.20
2017-10-20T12:38:02.364Z,10.57
2017-10-20T12:40:34.334Z,12.67
2017-10-20T12:43:06.401Z,12.30
2017-10-20T12:45:42.064Z,13.80
2017-10-20T12:48:13.973Z,14.20
2017-10-20T12:50:46.098Z,9.73
2017-10-20T12:53:18.623Z,11.57
2017-10-20T12:55:50.743Z,10.67
2017-10-20T12:58:22.795Z,15.43
2017-10-20T13:00:55.879Z,13.90
2017-10-20T13:03:31.843Z,11.07
2017-10-20T13:06:04.134Z,11.70
2017-10-20T13:08:37.162Z,12.13
2017-10-20T13:11:09.047Z,10.77
2017-10-20T13:13:40.915Z,9.53
2017-10-20T13:16:13.312Z,14.27
2017-10-20T13:18:45.177Z,13.43
2017-10-20T13:21:17.106Z,12.40
2017-10-20T13:23:48.866Z,12.20
2017-10-20T13:26:20.718Z,14.33
2017-10-20T13:28:52.684Z,12.40
2017-10-20T13:31:24.651Z,13.80
2017-10-20T13:33:56.464Z,14.20
2017-10-20T13:36:29.488Z,13.83
2017-10-20T13:39:01.280Z,27.37
2017-10-20T13:41:33.266Z,11.50
2017-10-20T13:44:06.454Z,10.07
2017-10-20T13:46:38.335Z,15.57
2017-10-20T13:49:10.186Z,12.50
2017-10-20T13:51:42.072Z,15.40
2017-10-20T13:54:13.988Z,15.00
2017-10-20T13:56:45.859Z,11.70
2017-10-20T13:59:17.730Z,10.20
2017-10-20T14:01:49.615Z,9.73
2017-10-20T14:04:21.541Z,10.40
2017-10-20T14:06:53.490Z,16.63
2017-10-20T14:09:25.377Z,10.10
2017-10-20T14:11:57.570Z,13.43
2017-10-20T14:14:29.372Z,15.83
2017-10-20T14:17:02.695Z,18.50
2017-10-20T14:19:34.376Z,21.20
2017-10-20T14:22:06.473Z,11.87
2017-10-20T14:24:38.367Z,17.03
2017-10-20T14:27:10.282Z,11.83
2017-10-20T14:29:42.568Z,12.20
2017-10-20T14:32:14.520Z,10.40
2017-10-20T14:34:46.460Z,15.53
2017-10-20T14:37:18.299Z,14.90
2017-10-20T14:39:49.955Z,15.90
2017-10-20T14:42:21.930Z,19.40
2017-10-20T14:44:53.708Z,16.30
2017-10-20T14:47:26.137Z,16.20
2017-10-20T14:49:57.981Z,16.70
2017-10-20T14:52:30.446Z,19.13
2017-10-20T14:55:02.096Z,14.33
2017-10-20T14:57:34.051Z,17.03
2017-10-20T15:00:05.913Z,16.90
2017-10-20T15:02:38.057Z,14.07
2017-10-20T15:05:10.855Z,17.53
2017-10-20T15:07:42.741Z,16.00
2017-10-20T15:10:14.498Z,15.40
2017-10-20T15:12:47.836Z,17.77
2017-10-20T15:15:19.497Z,20.03
2017-10-20T15:17:51.865Z,20.50
2017-10-20T15:20:23.592Z,20.50
2017-10-20T15:22:55.518Z,20.20
2017-10-20T15:25:27.397Z,17.00
2017-10-20T15:28:00.522Z,19.50
2017-10-20T15:30:33.598Z,15.57
2017-10-20T15:33:05.637Z,15.53
2017-10-20T15:35:37.584Z,21.83
2017-10-20T15:38:09.582Z,24.07
2017-10-20T15:40:41.529Z,17.70
2017-10-20T15:43:13.276Z,18.90
2017-10-20T15:45:44.944Z,20.87
2017-10-20T15:48:16.925Z,19.03
2017-10-20T15:50:48.989Z,19.53
2017-10-20T15:53:20.723Z,16.03
2017-10-20T15:55:52.588Z,15.90
2017-10-20T15:58:25.479Z,18.43
2017-10-20T16:00:57.614Z,19.00
2017-10-20T16:03:29.517Z,18.77
2017-10-20T16:06:01.186Z,22.40
2017-10-20T16:08:33.273Z,21.20
2017-10-20T16:11:04.959Z,24.83
2017-10-20T16:13:36.878Z,14.57
2017-10-20T16:16:09.362Z,15.23
2017-10-20T16:18:43.060Z,25.00
2017-10-20T16:21:15.211Z,19.40
2017-10-20T16:23:47.054Z,22.87
2017-10-20T16:26:18.941Z,23.53
2017-10-20T16:28:50.806Z,20.60
2017-10-20T16:31:24.023Z,15.77
2017-10-20T16:33:58.234Z,15.50
2017-10-20T16:36:31.169Z,18.57
2017-10-20T16:39:02.748Z,21.83
2017-10-20T16:41:34.650Z,22.30
2017-10-20T16:44:06.897Z,25.80
2017-10-20T16:46:38.800Z,18.87
2017-10-20T16:49:10.616Z,21.93
2017-10-20T16:51:42.250Z,24.80
2017-10-20T16:54:13.969Z,31.70
2017-10-20T16:56:49.897Z,23.07
2017-10-20T16:59:22.191Z,26.23
2017-10-20T17:01:53.991Z,24.13
2017-10-20T17:04:25.785Z,24.80
2017-10-20T17:06:57.534Z,22.93
2017-10-20T17:09:29.589Z,23.67
2017-10-20T17:12:01.347Z,27.67
2017-10-20T17:14:33.282Z,19.40
2017-10-20T17:17:05.287Z,23.20
2017-10-20T17:19:39.204Z,23.27
2017-10-20T17:22:11.165Z,23.03
2017-10-20T17:24:42.929Z,19.73
2017-10-20T17:27:14.804Z,22.53
2017-10-20T17:29:46.725Z,24.77
2017-10-20T17:32:18.406Z,23.43
2017-10-20T17:34:50.411Z,21.17
2017-10-20T17:37:22.153Z,30.60
2017-10-20T17:39:54.197Z,22.73
2017-10-20T17:42:26.155Z,27.23
2017-10-20T17:44:58.172Z,19.40
2017-10-20T17:47:31.058Z,23.23
2017-10-20T17:50:02.805Z,21.23
2017-10-20T17:52:34.614Z,21.30
2017-10-20T17:55:06.449Z,21.30
2017-10-20T17:57:38.458Z,22.40
2017-10-20T18:00:14.533Z,20.00
2017-10-20T18:02:47.299Z,23.20
2017-10-20T18:05:19.174Z,17.53
2017-10-20T18:07:55.444Z,19.07
2017-10-20T18:10:27.404Z,16.67
2017-10-20T18:12:59.498Z,14.47
2017-10-20T18:15:31.430Z,14.00
2017-10-20T18:18:03.281Z,18.10
2017-10-20T18:20:35.294Z,21.97
2017-10-20T18:23:07.119Z,15.50
2017-10-20T18:25:39.366Z,12.67
2017-10-20T18:28:15.755Z,18.70
2017-10-20T18:30:47.649Z,15.20
2017-10-20T18:33:19.510Z,16.47
2017-10-20T18:35:51.188Z,13.10
2017-10-20T18:38:22.985Z,14.53
2017-10-20T18:40:54.972Z,10.27
2017-10-20T18:43:26.840Z,14.20
2017-10-20T18:45:58.663Z,11.30
2017-10-20T18:48:30.469Z,11.00
2017-10-20T18:51:02.375Z,10.83
2017-10-20T18:53:34.224Z,16.07
2017-10-20T18:56:06.892Z,12.40
2017-10-20T18:58:42.772Z,11.83
2017-10-20T19:01:14.658Z,14.90
2017-10-20T19:03:46.517Z,13.00
2017-10-20T19:06:18.522Z,11.70
2017-10-20T19:08:50.430Z,13.80
2017-10-20T19:11:23.795Z,11.90
2017-10-20T19:13:55.676Z,14.47
2017-10-20T19:16:27.535Z,11.60
2017-10-20T19:18:59.594Z,16.07
2017-10-20T19:21:31.612Z,14.43
2017-10-20T19:24:03.159Z,13.50
2017-10-20T19:26:35.081Z,14.00
2017-10-20T19:29:06.984Z,16.13
2017-10-20T19:31:38.819Z,14.37
2017-10-20T19:34:10.475Z,20.67
2017-10-20T19:36:42.471Z,12.53
2017-10-20T19:39:14.487Z,14.63
2017-10-20T19:41:46.439Z,15.83
2017-10-20T19:44:18.287Z,17.00
2017-10-20T19:46:50.260Z,27.33
2017-10-20T19:49:22.219Z,23.77
2017-10-20T19:51:54.204Z,18.00
2017-10-20T19:54:25.761Z,21.10
2017-10-20T19:56:58.179Z,22.97
2017-10-20T19:59:30.213Z,18.50
2017-10-20T20:02:02.208Z,19.00
2017-10-20T20:04:34.279Z,16.87
2017-10-20T20:07:06.253Z,19.27
2017-10-20T20:09:39.072Z,21.13
2017-10-20T20:12:11.199Z,23.80
2017-10-20T20:14:43.724Z,22.20
2017-10-20T20:17:15.636Z,14.80
2017-10-20T20:19:49.184Z,18.03
2017-10-20T20:22:21.242Z,17.30
2017-10-20T20:24:53.435Z,14.27
2017-10-20T20:27:26.389Z,14.83
2017-10-20T20:29:58.614Z,12.67
2017-10-20T20:32:49.066Z,18.40
2017-10-20T20:35:21.273Z,15.30
2017-10-20T20:37:53.346Z,19.00
2017-10-20T20:40:25.583Z,21.53
2017-10-20T20:42:58.247Z,16.53
2017-10-20T20:45:30.102Z,15.90
2017-10-20T20:48:02.102Z,13.10
2017-10-20T20:50:34.023Z,15.97
2017-10-20T20:53:05.947Z,9.37
2017-10-20T20:55:37.879Z,10.93
2017-10-20T20:58:10.177Z,11.20
2017-10-20T21:00:42.895Z,9.73
2017-10-20T21:03:14.851Z,9.30
2017-10-20T21:05:46.923Z,16.70
2017-10-20T21:08:18.865Z,11.90
2017-10-20T21:10:50.527Z,13.27
2017-10-20T21:13:22.214Z,10.97
2017-10-20T21:15:54.282Z,13.53
2017-10-20T21:18:26.098Z,10.23
2017-10-20T21:20:58.021Z,13.57
2017-10-20T21:23:30.021Z,10.60
2017-10-20T21:26:02.823Z,11.77
2017-10-20T21:28:34.976Z,12.30
2017-10-20T21:31:06.843Z,11.27
2017-10-20T21:33:38.801Z,10.60
2017-10-20T21:36:10.802Z,16.60
2017-10-20T21:38:42.940Z,12.53
2017-10-20T21:41:14.875Z,9.90
2017-10-20T21:43:46.911Z,12.40
2017-10-20T21:46:18.899Z,13.03
2017-10-20T21:48:50.969Z,10.17
2017-10-20T21:51:22.903Z,11.43
2017-10-20T21:53:54.795Z,17.23
2017-10-20T21:56:26.933Z,13.13
2017-10-20T21:58:59.395Z,12.93
2017-10-20T22:01:31.519Z,14.10
2017-10-20T22:04:03.858Z,11.00
2017-10-20T22:06:36.025Z,10.63
2017-10-20T22:09:08.117Z,10.50
2017-10-20T22:11:40.219Z,11.73
2017-10-20T22:14:12.140Z,12.13
2017-10-20T22:16:44.038Z,10.57
2017-10-20T22:19:16.338Z,10.27
2017-10-20T22:21:48.178Z,13.43
2017-10-20T22:24:20.247Z,9.90
2017-10-20T22:26:52.196Z,11.20
2017-10-20T22:29:24.928Z,11.77
2017-10-20T22:31:56.938Z,10.37
2017-10-20T22:34:29.007Z,12.57
2017-10-20T22:37:00.964Z,13.00
2017-10-20T22:39:32.771Z,19.17
2017-10-20T22:42:04.739Z,17.43
2017-10-20T22:44:36.715Z,15.60
2017-10-20T22:47:08.992Z,14.27
2017-10-20T22:49:42.069Z,12.90
2017-10-20T22:52:14.243Z,16.27
2017-10-20T22:54:46.191Z,18.27
2017-10-20T22:57:19.209Z,12.43
2017-10-20T22:59:51.497Z,14.70
2017-10-20T23:02:23.537Z,15.20
2017-10-20T23:04:55.781Z,13.67
2017-10-20T23:07:27.819Z,20.37
2017-10-20T23:10:01.489Z,13.23
2017-10-20T23:12:33.390Z,13.40
2017-10-20T23:15:05.469Z,14.03
2017-10-20T23:17:38.017Z,15.10
2017-10-20T23:20:10.184Z,14.40
2017-10-20T23:22:43.010Z,10.03
2017-10-20T23:25:15.197Z,11.53
2017-10-20T23:27:48.882Z,10.30
2017-10-20T23:30:20.654Z,14.50
2017-10-20T23:32:53.589Z,12.00
2017-10-20T23:35:25.788Z,9.67
2017-10-20T23:37:57.820Z,13.53
2017-10-20T23:40:39.297Z,12.27
2017-10-20T23:43:11.208Z,10.20
2017-10-20T23:45:46.384Z,13.30
2017-10-20T23:48:18.548Z,9.67
2017-10-20T23:50:51.803Z,10.67
2017-10-20T23:53:23.971Z,12.30
2017-10-20T23:55:55.862Z,12.97
2017-10-20T23:58:29.009Z,12.90
